»·PEaware :: N572J KSBP-KHAF

N572J :: KSBP-KHAF

FLIGHT INFORMATION

Flight Status: Arrived
Operator: Privately registered:
United States
More flights under this callsign
Pilot: Christian K. (13941)
Aircraft: SOCATA TBM-900
(TBM9)
More flights by this aircraft type
Origin: KSBP San Luis Co Regl
United States
Destination: KHAF Half Moon Bay
United States
More flights between these airports :: More routes between these airports
Route: CREPE3 FRAMS V27 BSR DCT SANTY V25 SFO
File this flight plan on PilotEdge
Remarks:
Altitude:
(Current/Filed)
18,000ft
Speed:
(Current/Filed)
300kts
Departed: 12-Feb-20 11:08 AM
Arrived: 12-Feb-20 11:56 AM
Distance/Time
Traveled:
163nm/0:48
Distance/Time
To Go:
Arrived

Flight Plot

Page will automatically refresh every two minutes.

Flight plan parsing failed; only flown route is shown


Map Options




Map Legend


Flown Route
Filed Route
Departure Airport
Arrival Airport
Navaid (VOR, NDB)
Fix

Horizontal Profiles

Position Reports

Time Latitude Longitude Heading Altitude Ground
Speed
12-Feb-20 10:53 35.236676 -120.636823 146 215ft 0kts
12-Feb-20 10:54 35.236676 -120.636823 146 215ft 0kts
12-Feb-20 10:55 35.236676 -120.636823 146 215ft 0kts
12-Feb-20 10:56 35.236676 -120.636823 146 215ft 0kts
12-Feb-20 10:57 35.236676 -120.636823 146 215ft 0kts
12-Feb-20 10:58 35.236676 -120.636823 146 215ft 0kts
12-Feb-20 10:59 35.236676 -120.636823 146 215ft 0kts
12-Feb-20 11:00 35.236676 -120.636823 146 215ft 0kts
12-Feb-20 11:01 35.236676 -120.636823 146 215ft 0kts
12-Feb-20 11:02 35.236676 -120.636823 146 215ft 0kts
12-Feb-20 11:03 35.236466 -120.636586 132 215ft 6kts
12-Feb-20 11:04 35.236022 -120.636353 207 215ft 0kts
12-Feb-20 11:05 35.235276 -120.635445 128 215ft 17kts
12-Feb-20 11:06 35.233357 -120.632327 172 215ft 5kts
12-Feb-20 11:07 35.239765 -120.645138 306 476ft 123kts
12-Feb-20 11:08 35.257863 -120.680849 302 2813ft 129kts
12-Feb-20 11:09 35.277452 -120.717402 307 5002ft 144kts
12-Feb-20 11:10 35.310017 -120.773087 306 5013ft 232kts
12-Feb-20 11:11 35.346472 -120.834685 307 6208ft 194kts
12-Feb-20 11:12 35.378037 -120.887880 308 7500ft 194kts
12-Feb-20 11:13 35.372432 -120.947611 285 8999ft 190kts
12-Feb-20 11:14 35.403711 -120.997310 311 10454ft 185kts
12-Feb-20 11:15 35.435750 -121.047182 311 11751ft 185kts
12-Feb-20 11:16 35.467751 -121.097513 311 13156ft 188kts
12-Feb-20 11:17 35.499990 -121.148340 311 14753ft 190kts
12-Feb-20 11:18 35.532755 -121.200080 312 16225ft 192kts
12-Feb-20 11:19 35.566020 -121.252676 312 17719ft 197kts
12-Feb-20 11:20 35.603073 -121.311336 311 18028ft 238kts
12-Feb-20 11:21 35.652503 -121.367396 337 18027ft 249kts
12-Feb-20 11:22 35.717191 -121.400681 337 18016ft 253kts
12-Feb-20 11:23 35.782583 -121.434507 337 18015ft 254kts
12-Feb-20 11:24 35.847758 -121.468286 337 18011ft 254kts
12-Feb-20 11:25 35.912986 -121.502154 337 17975ft 255kts
12-Feb-20 11:26 35.980187 -121.537119 337 17424ft 263kts
12-Feb-20 11:27 36.048163 -121.572544 337 16788ft 265kts
12-Feb-20 11:28 36.104343 -121.601877 337 16263ft 266kts
12-Feb-20 11:29 36.171907 -121.637203 337 15667ft 260kts
12-Feb-20 11:30 36.238556 -121.672726 336 15076ft 259kts
12-Feb-20 11:31 36.304823 -121.708201 336 14489ft 259kts
12-Feb-20 11:32 36.370790 -121.743586 336 13898ft 257kts
12-Feb-20 11:33 36.436274 -121.778775 336 13305ft 256kts
12-Feb-20 11:34 36.502513 -121.814437 336 12523ft 259kts
12-Feb-20 11:35 36.556957 -121.843799 336 11861ft 258kts
12-Feb-20 11:36 36.621717 -121.878787 337 11054ft 252kts
12-Feb-20 11:37 36.686095 -121.913614 337 10338ft 251kts
12-Feb-20 11:38 36.750618 -121.947237 345 9619ft 251kts
12-Feb-20 11:39 36.817935 -121.973036 343 8909ft 253kts
12-Feb-20 11:40 36.885345 -121.999023 343 8197ft 254kts
12-Feb-20 11:41 36.953181 -122.025244 343 7480ft 254kts
12-Feb-20 11:42 37.020091 -122.051876 343 6760ft 251kts
12-Feb-20 11:43 37.082935 -122.092261 329 6037ft 258kts
12-Feb-20 11:44 37.143722 -122.141311 329 5345ft 266kts
12-Feb-20 11:46 37.204977 -122.190295 330 4786ft 257kts
12-Feb-20 11:47 37.261600 -122.234208 330 3807ft 207kts
12-Feb-20 11:48 37.304683 -122.267664 331 3796ft 170kts
12-Feb-20 11:49 37.345085 -122.299922 307 3639ft 186kts
12-Feb-20 11:50 37.382684 -122.348142 319 3303ft 188kts
12-Feb-20 11:51 37.416400 -122.389296 318 3236ft 158kts
12-Feb-20 11:52 37.448757 -122.426353 318 2090ft 149kts
12-Feb-20 11:53 37.473100 -122.454405 319 1252ft 95kts
12-Feb-20 11:54 37.492499 -122.476728 318 617ft 90kts
12-Feb-20 11:55 37.510418 -122.497645 318 83ft 85kts
12-Feb-20 11:56 37.518511 -122.506791 21 66ft 17kts
12-Feb-20 11:57 37.517844 -122.503753 137 66ft 21kts
12-Feb-20 11:58 37.514808 -122.498450 124 66ft 17kts
12-Feb-20 11:59 37.513956 -122.496292 125 66ft 0kts
12-Feb-20 12:00 37.513956 -122.496293 126 66ft 0kts
12-Feb-20 12:01 37.513956 -122.496292 126 66ft 0kts
12-Feb-20 12:02 37.513956 -122.496292 126 66ft 0kts
12-Feb-20 12:03 37.513956 -122.496292 126 66ft 0kts
12-Feb-20 12:04 37.513956 -122.496292 126 66ft 0kts

Navigation Log

Ident Type
Flight plan parsing failed, navigation log unavailable